PrentiSS Brown — WDE6848 — position and weather

sailwx.info

Track history (hours):
 
Tides and Currents Weather Stations Pressure Air Temp Water Temp Dewpoint Dewpoint Depression Visibility Wind Speed Wind Dir Waves Ship Positions

PrentiSS Brown

Owner: Port City Marine Services Inc, Muskegon, MI. More information available from US FCC via Universal Licensing System and Coast Guard Vessel Documentation Center.

Last reported at 2015-Jul-04 14:33 UTC. Time now 2015-Jul-04 15:22 UTC.
Position N 45°19' W 085°17'.

; draft 5.3 m.

Type: Other ship. MMSI: 366922280.

Date/timePositionNaut miles runAvg speedWind from/ knotsBaromVisibWave heightAir tempDewpointWater temp
2015-Jul-04 14:33N 45°19' W 085°17'0 0.0
2015-Jul-04 13:33N 45°19' W 085°17'0 0.4
2015-Jul-04 12:33N 45°20' W 085°17'3 3.0
2015-Jul-04 11:33N 45°19' W 085°21'3 3.5
2015-Jul-04 10:33N 45°18' W 085°26'4 3.6
2015-Jul-04 09:33N 45°16' W 085°30'4 3.9
2015-Jul-04 08:33N 45°14' W 085°35'6 5.8
2015-Jul-04 07:33N 45°11' W 085°42'6 5.9
2015-Jul-04 06:33N 45°07' W 085°48'6 5.7
2015-Jul-04 05:33N 45°03' W 085°54'6 5.6
2015-Jul-04 04:30N 44°59' W 086°00'5 5.6
2015-Jul-04 03:33N 44°57' W 086°07'6 6.2
2015-Jul-04 02:33N 44°53' W 086°14'  
2015-Jun-30 00:27N 44°59' W 086°01'7 8.3
2015-Jun-29 23:34N 45°03' W 085°52'8 8.3
2015-Jun-29 22:34N 45°09' W 085°44'8 8.2
2015-Jun-29 21:33N 45°14' W 085°35'8 8.3
2015-Jun-29 20:33N 45°18' W 085°25'5 5.1
2015-Jun-29 19:33N 45°19' W 085°17'0 0.3
2015-Jun-29 18:34N 45°19' W 085°18'0 0.0
2015-Jun-29 17:33N 45°19' W 085°18'0 0.0
2015-Jun-29 16:33N 45°19' W 085°18'0 0.0
2015-Jun-29 15:33N 45°19' W 085°18'0 0.0
2015-Jun-29 14:33N 45°19' W 085°18'0 0.0
2015-Jun-29 13:33N 45°19' W 085°18'0 0.0
2015-Jun-29 12:33N 45°19' W 085°18'1 1.5
2015-Jun-29 11:33N 45°20' W 085°18'4 4.1
2015-Jun-29 10:33N 45°19' W 085°24'4 3.6
2015-Jun-29 09:34N 45°17' W 085°28'3 3.5
2015-Jun-29 08:34N 45°15' W 085°33'8 7.8
2015-Jun-29 07:33N 45°11' W 085°42'8 8.1
2015-Jun-29 06:33N 45°05' W 085°50'8 8.0
2015-Jun-29 05:33N 44°60' W 085°58'9 8.8
2015-Jun-29 04:34N 44°56' W 086°09'9 9.3
2015-Jun-29 03:33N 44°48' W 086°17'13 0.3
2015-Jun-27 04:30N 44°58' W 086°06'18 8.6
2015-Jun-27 02:28N 45°08' W 085°46'8 8.6
2015-Jun-27 01:34N 45°13' W 085°38'9 8.8
2015-Jun-27 00:33N 45°18' W 085°26'7 6.7
2015-Jun-26 23:33N 45°19' W 085°17'0 0.4
2015-Jun-26 22:33N 45°19' W 085°18'0 0.0
2015-Jun-26 21:33N 45°19' W 085°18'0 0.0
2015-Jun-26 20:33N 45°19' W 085°18'0 0.0
2015-Jun-26 19:34N 45°19' W 085°18'0 0.0
2015-Jun-26 18:33N 45°19' W 085°18'0 0.0
2015-Jun-26 17:33N 45°19' W 085°18'1 0.7
2015-Jun-26 16:33N 45°20' W 085°17'0 0.1
2015-Jun-26 15:33N 45°20' W 085°17'0 0.0
2015-Jun-26 14:33N 45°20' W 085°17'0 0.0
2015-Jun-26 13:33N 45°20' W 085°17'0 0.0
2015-Jun-26 12:34N 45°20' W 085°17'0 0.0
2015-Jun-26 11:33N 45°20' W 085°17'0 0.0
2015-Jun-26 10:33N 45°20' W 085°17'0 0.1
2015-Jun-26 09:33N 45°20' W 085°17'0 0.0
2015-Jun-26 08:33N 45°20' W 085°17'1 0.7
2015-Jun-26 07:33N 45°20' W 085°18'8 7.6
2015-Jun-26 06:33N 45°17' W 085°28'8 8.3
2015-Jun-26 05:34N 45°13' W 085°38'9 8.5
2015-Jun-26 04:33N 45°07' W 085°47'  
Track history (hours):
 
Tides and Currents Weather Stations Pressure Air Temp Water Temp Dewpoint Dewpoint Depression Visibility Wind Speed Wind Dir Waves Ship Positions

PrentiSS Brown

Owner: Port City Marine Services Inc, Muskegon, MI. More information available from US FCC via Universal Licensing System and Coast Guard Vessel Documentation Center.

Last reported at 2015-Jul-04 14:33 UTC. Time now 2015-Jul-04 15:22 UTC.
Position N 45°19' W 085°17'.

; draft 5.3 m.

Type: Other ship. MMSI: 366922280.

Date/timePositionNaut miles runAvg speedWind from/ knotsBaromVisibWave heightAir tempDewpointWater temp
2015-Jul-04 14:33N 45°19' W 085°17'0 0.0
2015-Jul-04 13:33N 45°19' W 085°17'0 0.4
2015-Jul-04 12:33N 45°20' W 085°17'3 3.0
2015-Jul-04 11:33N 45°19' W 085°21'3 3.5
2015-Jul-04 10:33N 45°18' W 085°26'4 3.6
2015-Jul-04 09:33N 45°16' W 085°30'4 3.9
2015-Jul-04 08:33N 45°14' W 085°35'6 5.8
2015-Jul-04 07:33N 45°11' W 085°42'6 5.9
2015-Jul-04 06:33N 45°07' W 085°48'6 5.7
2015-Jul-04 05:33N 45°03' W 085°54'6 5.6
2015-Jul-04 04:30N 44°59' W 086°00'5 5.6
2015-Jul-04 03:33N 44°57' W 086°07'6 6.2
2015-Jul-04 02:33N 44°53' W 086°14'  
2015-Jun-30 00:27N 44°59' W 086°01'7 8.3
2015-Jun-29 23:34N 45°03' W 085°52'8 8.3
2015-Jun-29 22:34N 45°09' W 085°44'8 8.2
2015-Jun-29 21:33N 45°14' W 085°35'8 8.3
2015-Jun-29 20:33N 45°18' W 085°25'5 5.1
2015-Jun-29 19:33N 45°19' W 085°17'0 0.3
2015-Jun-29 18:34N 45°19' W 085°18'0 0.0
2015-Jun-29 17:33N 45°19' W 085°18'0 0.0
2015-Jun-29 16:33N 45°19' W 085°18'0 0.0
2015-Jun-29 15:33N 45°19' W 085°18'0 0.0
2015-Jun-29 14:33N 45°19' W 085°18'0 0.0
2015-Jun-29 13:33N 45°19' W 085°18'0 0.0
2015-Jun-29 12:33N 45°19' W 085°18'1 1.5
2015-Jun-29 11:33N 45°20' W 085°18'4 4.1
2015-Jun-29 10:33N 45°19' W 085°24'4 3.6
2015-Jun-29 09:34N 45°17' W 085°28'3 3.5
2015-Jun-29 08:34N 45°15' W 085°33'8 7.8
2015-Jun-29 07:33N 45°11' W 085°42'8 8.1
2015-Jun-29 06:33N 45°05' W 085°50'8 8.0
2015-Jun-29 05:33N 44°60' W 085°58'9 8.8
2015-Jun-29 04:34N 44°56' W 086°09'9 9.3
2015-Jun-29 03:33N 44°48' W 086°17'13 0.3
2015-Jun-27 04:30N 44°58' W 086°06'18 8.6
2015-Jun-27 02:28N 45°08' W 085°46'8 8.6
2015-Jun-27 01:34N 45°13' W 085°38'9 8.8
2015-Jun-27 00:33N 45°18' W 085°26'7 6.7
2015-Jun-26 23:33N 45°19' W 085°17'0 0.4
2015-Jun-26 22:33N 45°19' W 085°18'0 0.0
2015-Jun-26 21:33N 45°19' W 085°18'0 0.0
2015-Jun-26 20:33N 45°19' W 085°18'0 0.0
2015-Jun-26 19:34N 45°19' W 085°18'0 0.0
2015-Jun-26 18:33N 45°19' W 085°18'0 0.0
2015-Jun-26 17:33N 45°19' W 085°18'1 0.7
2015-Jun-26 16:33N 45°20' W 085°17'0 0.1
2015-Jun-26 15:33N 45°20' W 085°17'0 0.0
2015-Jun-26 14:33N 45°20' W 085°17'0 0.0
2015-Jun-26 13:33N 45°20' W 085°17'0 0.0
2015-Jun-26 12:34N 45°20' W 085°17'0 0.0
2015-Jun-26 11:33N 45°20' W 085°17'0 0.0
2015-Jun-26 10:33N 45°20' W 085°17'0 0.1
2015-Jun-26 09:33N 45°20' W 085°17'0 0.0
2015-Jun-26 08:33N 45°20' W 085°17'1 0.7
2015-Jun-26 07:33N 45°20' W 085°18'8 7.6
2015-Jun-26 06:33N 45°17' W 085°28'8 8.3
2015-Jun-26 05:34N 45°13' W 085°38'9 8.5
2015-Jun-26 04:33N 45°07' W 085°47'  

Dump ship's entire track history